Terminal Aerodrome Forecast
Issued by NWS

Home | Current Version | Previous Version | Text Only | Print | Product List | Glossary On
Versions: 1 2 3 4 5 6 7 8 9 10 11 12 13 14 15 16 17 18 19 20 21 22 23 24 25 26 27 28 29 30 31 32 33 34 35 36 37 38 39 40 41 42 43 44 45 46 47 48 49 50
000
FTUS46 KMTR 070303 AAA
TAFSFO
TAF AMD
KSFO 070303Z 0703/0806 15018G26KT P6SM -RA OVC025 WS020/16050KT
     FM070700 15023G30KT 3SM RA BR OVC015 WS020/17050KT
     FM071000 16015G26KT 6SM -SHRA BR BKN020 OVC025 WS020/19035KT
     FM071700 16018G30KT 6SM -SHRA BR OVC025 WS020/20035KT
     FM072100 19024G36KT 3SM RA BR BKN025 BKN040 WS020/21045KT
     FM080200 22012G20KT 6SM -SHRA BR BKN035 BKN050=

USA.gov is the U.S. government's official web portal to all federal, state and local government web resources and services.